sensor_id;sensor_type;location;lat;lon;timestamp;pressure;altitude;pressure_sealevel;temperature;humidity
73525;BME280;61776;56.194;44.160;2022-11-02T00:01:14;100000.81;;;25.09;31.86
73525;BME280;61776;56.194;44.160;2022-11-02T00:03:43;100003.25;;;25.11;31.75
73525;BME280;61776;56.194;44.160;2022-11-02T00:06:09;99997.13;;;25.10;31.76
73525;BME280;61776;56.194;44.160;2022-11-02T00:08:35;99996.31;;;25.10;31.77
73525;BME280;61776;56.194;44.160;2022-11-02T00:11:00;99991.00;;;25.10;31.76
73525;BME280;61776;56.194;44.160;2022-11-02T00:13:26;99998.16;;;25.09;31.87
73525;BME280;61776;56.194;44.160;2022-11-02T00:16:03;99990.19;;;25.09;31.51
73525;BME280;61776;56.194;44.160;2022-11-02T00:18:31;100012.25;;;25.10;31.46
73525;BME280;61776;56.194;44.160;2022-11-02T00:21:00;100000.81;;;25.09;31.57
73525;BME280;61776;56.194;44.160;2022-11-02T00:23:26;100007.78;;;25.10;31.54
73525;BME280;61776;56.194;44.160;2022-11-02T00:25:53;100001.63;;;25.10;31.71
73525;BME280;61776;56.194;44.160;2022-11-02T00:28:20;99997.13;;;25.10;31.89
73525;BME280;61776;56.194;44.160;2022-11-02T00:30:46;100000.81;;;25.09;31.92
73525;BME280;61776;56.194;44.160;2022-11-02T00:33:12;99991.00;;;25.10;31.90
73525;BME280;61776;56.194;44.160;2022-11-02T00:35:38;99995.50;;;25.09;31.51
73525;BME280;61776;56.194;44.160;2022-11-02T00:38:04;99992.06;;;25.09;31.39
73525;BME280;61776;56.194;44.160;2022-11-02T00:40:30;99999.22;;;25.08;31.66
73525;BME280;61776;56.194;44.160;2022-11-02T00:42:56;99999.22;;;25.08;31.66
73525;BME280;61776;56.194;44.160;2022-11-02T00:45:22;99994.72;;;25.09;31.47
73525;BME280;61776;56.194;44.160;2022-11-02T00:47:49;99988.59;;;25.08;31.59
73525;BME280;61776;56.194;44.160;2022-11-02T00:50:15;99984.31;;;25.07;31.66
73525;BME280;61776;56.194;44.160;2022-11-02T00:52:42;99985.94;;;25.08;31.50
73525;BME280;61776;56.194;44.160;2022-11-02T00:55:09;99980.88;;;25.07;31.64
73525;BME280;61776;56.194;44.160;2022-11-02T00:57:38;99988.00;;;25.06;31.31
73525;BME280;61776;56.194;44.160;2022-11-02T01:00:07;99988.00;;;25.06;31.46
73525;BME280;61776;56.194;44.160;2022-11-02T01:02:34;99985.34;;;25.06;31.46
73525;BME280;61776;56.194;44.160;2022-11-02T01:05:01;99990.66;;;25.06;31.53
73525;BME280;61776;56.194;44.160;2022-11-02T01:07:28;99986.19;;;25.07;31.70
73525;BME280;61776;56.194;44.160;2022-11-02T01:09:54;99981.88;;;25.06;31.52
73525;BME280;61776;56.194;44.160;2022-11-02T01:12:20;99982.94;;;25.05;31.44
73525;BME280;61776;56.194;44.160;2022-11-02T01:14:47;99979.47;;;25.04;31.78
73525;BME280;61776;56.194;44.160;2022-11-02T01:17:14;99979.47;;;25.04;31.26
73525;BME280;61776;56.194;44.160;2022-11-02T01:19:40;99982.94;;;25.05;31.41
73525;BME280;61776;56.194;44.160;2022-11-02T01:22:06;99991.72;;;25.05;31.06
73525;BME280;61776;56.194;44.160;2022-11-02T01:24:33;99988.25;;;25.05;31.55
73525;BME280;61776;56.194;44.160;2022-11-02T01:26:59;99990.09;;;25.04;31.21
73525;BME280;61776;56.194;44.160;2022-11-02T01:29:25;99990.09;;;25.04;31.33
73525;BME280;61776;56.194;44.160;2022-11-02T01:31:51;99986.63;;;25.04;31.32
73525;BME280;61776;56.194;44.160;2022-11-02T01:34:20;99973.59;;;25.02;31.41
73525;BME280;61776;56.194;44.160;2022-11-02T01:36:46;99980.75;;;25.02;31.55
73525;BME280;61776;56.194;44.160;2022-11-02T01:39:13;99984.22;;;25.02;31.25
73525;BME280;61776;56.194;44.160;2022-11-02T01:41:40;99974.63;;;25.01;31.41
73525;BME280;61776;56.194;44.160;2022-11-02T01:44:27;99979.13;;;25.00;31.00
73525;BME280;61776;56.194;44.160;2022-11-02T01:46:58;99981.78;;;25.00;31.03
73525;BME280;61776;56.194;44.160;2022-11-02T01:49:25;99972.22;;;24.99;31.16
73525;BME280;61776;56.194;44.160;2022-11-02T01:51:59;99975.09;;;24.98;31.39
73525;BME280;61776;56.194;44.160;2022-11-02T01:54:30;99981.47;;;24.97;31.17
73525;BME280;61776;56.194;44.160;2022-11-02T01:57:03;99988.38;;;24.98;31.14
73525;BME280;61776;56.194;44.160;2022-11-02T01:59:34;99981.47;;;24.97;31.22
73525;BME280;61776;56.194;44.160;2022-11-02T02:02:04;99971.88;;;24.96;31.17
73525;BME280;61776;56.194;44.160;2022-11-02T02:04:34;99966.56;;;24.96;30.88
73525;BME280;61776;56.194;44.160;2022-11-02T02:07:01;99966.56;;;24.96;30.97
73525;BME280;61776;56.194;44.160;2022-11-02T02:09:28;99975.56;;;24.95;31.09
73525;BME280;61776;56.194;44.160;2022-11-02T02:11:54;99980.06;;;24.94;31.00
73525;BME280;61776;56.194;44.160;2022-11-02T02:14:21;99985.38;;;24.94;31.08
73525;BME280;61776;56.194;44.160;2022-11-02T02:17:18;99993.34;;;24.94;31.08
73525;BME280;61776;56.194;44.160;2022-11-02T02:31:34;99987.34;;;24.87;31.08
73525;BME280;61776;56.194;44.160;2022-11-02T02:34:36;99986.31;;;24.88;31.32
73525;BME280;61776;56.194;44.160;2022-11-02T02:37:10;99981.81;;;24.89;31.25
73525;BME280;61776;56.194;44.160;2022-11-02T02:39:50;99989.56;;;24.90;31.30
73525;BME280;61776;56.194;44.160;2022-11-02T02:42:28;99985.88;;;24.91;31.12
73525;BME280;61776;56.194;44.160;2022-11-02T02:45:17;99980.56;;;24.91;31.19
73525;BME280;61776;56.194;44.160;2022-11-02T02:47:50;99988.25;;;24.93;31.29
73525;BME280;61776;56.194;44.160;2022-11-02T02:50:24;99991.75;;;24.93;31.00
73525;BME280;61776;56.194;44.160;2022-11-02T02:52:54;99985.59;;;24.93;30.92
73525;BME280;61776;56.194;44.160;2022-11-02T02:55:25;99986.44;;;24.93;30.83
73525;BME280;61776;56.194;44.160;2022-11-02T02:57:53;99990.69;;;24.94;30.82
73525;BME280;61776;56.194;44.160;2022-11-02T03:00:21;99988.84;;;24.95;31.17
73525;BME280;61776;56.194;44.160;2022-11-02T03:02:48;99983.28;;;24.96;30.84
73525;BME280;61776;56.194;44.160;2022-11-02T03:05:29;99977.41;;;24.94;30.98
73525;BME280;61776;56.194;44.160;2022-11-02T03:08:06;99973.16;;;24.93;31.20
73525;BME280;61776;56.194;44.160;2022-11-02T03:11:01;99984.59;;;24.94;30.73
73525;BME280;61776;56.194;44.160;2022-11-02T03:18:48;99977.06;;;24.91;31.00
73525;BME280;61776;56.194;44.160;2022-11-02T03:23:51;99972.81;;;24.90;30.89
73525;BME280;61776;56.194;44.160;2022-11-02T03:26:31;99974.66;;;24.89;31.24
73525;BME280;61776;56.194;44.160;2022-11-02T03:29:16;99973.63;;;24.90;31.21
73525;BME280;61776;56.194;44.160;2022-11-02T03:31:55;99969.94;;;24.91;30.99
73525;BME280;61776;56.194;44.160;2022-11-02T03:34:42;99966.69;;;24.89;31.17
73525;BME280;61776;56.194;44.160;2022-11-02T03:37:16;99965.06;;;24.88;31.58
73525;BME280;61776;56.194;44.160;2022-11-02T03:39:54;99962.44;;;24.88;32.23
73525;BME280;61776;56.194;44.160;2022-11-02T03:42:26;99973.63;;;24.90;32.30
73525;BME280;61776;56.194;44.160;2022-11-02T03:45:00;99975.25;;;24.91;33.43
73525;BME280;61776;56.194;44.160;2022-11-02T03:47:30;99971.31;;;24.94;33.72
73525;BME280;61776;56.194;44.160;2022-11-02T03:50:06;99972.09;;;24.94;34.28
73525;BME280;61776;56.194;44.160;2022-11-02T03:52:36;99976.72;;;24.99;34.22
73525;BME280;61776;56.194;44.160;2022-11-02T03:55:09;99975.22;;;25.03;35.00
73525;BME280;61776;56.194;44.160;2022-11-02T03:57:45;99977.97;;;25.08;35.43
73525;BME280;61776;56.194;44.160;2022-11-02T04:00:20;99974.59;;;25.13;35.59
73525;BME280;61776;56.194;44.160;2022-11-02T04:02:56;99972.06;;;25.18;35.66
73525;BME280;61776;56.194;44.160;2022-11-02T04:05:32;99973.41;;;25.21;35.14
73525;BME280;61776;56.194;44.160;2022-11-02T04:08:03;99978.06;;;25.25;34.92
73525;BME280;61776;56.194;44.160;2022-11-02T04:11:00;99978.88;;;25.26;34.94
73525;BME280;61776;56.194;44.160;2022-11-02T04:13:46;99974.34;;;25.26;34.53
73525;BME280;61776;56.194;44.160;2022-11-02T04:16:35;99981.31;;;25.27;34.85
73525;BME280;61776;56.194;44.160;2022-11-02T04:19:06;99973.09;;;25.29;35.17
73525;BME280;61776;56.194;44.160;2022-11-02T04:21:51;99972.84;;;25.30;35.40
73525;BME280;61776;56.194;44.160;2022-11-02T04:24:38;99966.72;;;25.30;35.71
73525;BME280;61776;56.194;44.160;2022-11-02T04:27:24;99977.91;;;25.32;35.99
73525;BME280;61776;56.194;44.160;2022-11-02T04:29:51;99978.72;;;25.32;35.87
73525;BME280;61776;56.194;44.160;2022-11-02T04:32:17;99974.00;;;25.34;36.78
73525;BME280;61776;56.194;44.160;2022-11-02T04:35:07;99974.56;;;25.36;37.70
73525;BME280;61776;56.194;44.160;2022-11-02T04:37:41;99971.41;;;25.40;38.53
73525;BME280;61776;56.194;44.160;2022-11-02T04:40:28;99968.53;;;25.41;38.74
73525;BME280;61776;56.194;44.160;2022-11-02T04:42:55;99977.63;;;25.45;39.22
73525;BME280;61776;56.194;44.160;2022-11-02T04:45:21;99980.41;;;25.50;39.47
73525;BME280;61776;56.194;44.160;2022-11-02T04:47:47;99974.63;;;25.53;40.19
73525;BME280;61776;56.194;44.160;2022-11-02T04:50:13;99979.94;;;25.53;40.53
73525;BME280;61776;56.194;44.160;2022-11-02T04:52:40;99983.16;;;25.55;40.36
73525;BME280;61776;56.194;44.160;2022-11-02T04:55:07;99985.31;;;25.58;40.90
73525;BME280;61776;56.194;44.160;2022-11-02T04:57:33;99985.09;;;25.60;41.41
73525;BME280;61776;56.194;44.160;2022-11-02T05:00:01;99990.97;;;25.62;41.67
73525;BME280;61776;56.194;44.160;2022-11-02T05:02:30;99991.31;;;25.66;41.94
73525;BME280;61776;56.194;44.160;2022-11-02T05:04:56;99989.47;;;25.66;41.92
73525;BME280;61776;56.194;44.160;2022-11-02T05:07:22;99987.03;;;25.65;41.08
73525;BME280;61776;56.194;44.160;2022-11-02T05:09:48;99990.97;;;25.62;40.64
73525;BME280;61776;56.194;44.160;2022-11-02T05:12:14;99988.31;;;25.62;40.91
73525;BME280;61776;56.194;44.160;2022-11-02T05:14:40;99984.84;;;25.62;40.68
73525;BME280;61776;56.194;44.160;2022-11-02T05:17:06;99981.97;;;25.63;40.13
73525;BME280;61776;56.194;44.160;2022-11-02T05:19:34;99980.09;;;25.64;39.13
73525;BME280;61776;56.194;44.160;2022-11-02T05:22:01;99968.66;;;25.63;38.31
73525;BME280;61776;56.194;44.160;2022-11-02T05:24:28;99972.91;;;25.64;38.38
73525;BME280;61776;56.194;44.160;2022-11-02T05:26:55;99975.59;;;25.64;37.93
73525;BME280;61776;56.194;44.160;2022-11-02T05:29:24;99970.53;;;25.63;36.48
73525;BME280;61776;56.194;44.160;2022-11-02T05:31:51;99970.75;;;25.61;35.16
73525;BME280;61776;56.194;44.160;2022-11-02T05:34:18;99962.22;;;25.59;35.82
73525;BME280;61776;56.194;44.160;2022-11-02T05:36:47;99964.88;;;25.59;35.82
73525;BME280;61776;56.194;44.160;2022-11-02T05:39:13;99969.13;;;25.60;36.24
73525;BME280;61776;56.194;44.160;2022-11-02T05:41:40;99964.88;;;25.59;36.05
73525;BME280;61776;56.194;44.160;2022-11-02T05:44:07;99958.75;;;25.58;35.91
73525;BME280;61776;56.194;44.160;2022-11-02T05:46:36;99958.75;;;25.58;35.35
73525;BME280;61776;56.194;44.160;2022-11-02T05:49:02;99968.81;;;25.56;35.09
73525;BME280;61776;56.194;44.160;2022-11-02T05:51:27;99974.13;;;25.56;34.97
73525;BME280;61776;56.194;44.160;2022-11-02T05:53:53;99971.47;;;25.56;35.03
73525;BME280;61776;56.194;44.160;2022-11-02T05:56:19;99960.25;;;25.54;34.93
73525;BME280;61776;56.194;44.160;2022-11-02T05:58:45;99963.97;;;25.53;34.55
73525;BME280;61776;56.194;44.160;2022-11-02T06:01:11;99953.34;;;25.53;34.73
73525;BME280;61776;56.194;44.160;2022-11-02T06:03:37;99958.09;;;25.51;34.46
73525;BME280;61776;56.194;44.160;2022-11-02T06:06:05;99954.63;;;25.51;34.16
73525;BME280;61776;56.194;44.160;2022-11-02T06:08:33;99960.19;;;25.49;34.38
73525;BME280;61776;56.194;44.160;2022-11-02T06:11:12;99960.44;;;25.48;33.98
73525;BME280;61776;56.194;44.160;2022-11-02T06:13:39;99962.25;;;25.47;34.21
73525;BME280;61776;56.194;44.160;2022-11-02T06:16:07;99958.00;;;25.46;33.57
73525;BME280;61776;56.194;44.160;2022-11-02T06:18:36;99960.09;;;25.44;33.35
73525;BME280;61776;56.194;44.160;2022-11-02T06:21:03;99962.19;;;25.42;33.54
73525;BME280;61776;56.194;44.160;2022-11-02T06:23:29;99964.00;;;25.42;33.61
73525;BME280;61776;56.194;44.160;2022-11-02T06:25:58;99959.75;;;25.41;33.56
73525;BME280;61776;56.194;44.160;2022-11-02T06:28:25;99953.66;;;25.40;33.23
73525;BME280;61776;56.194;44.160;2022-11-02T06:30:51;99960.00;;;25.39;32.88
73525;BME280;61776;56.194;44.160;2022-11-02T06:33:18;99962.88;;;25.37;32.97
73525;BME280;61776;56.194;44.160;2022-11-02T06:35:45;99958.84;;;25.35;32.50
73525;BME280;61776;56.194;44.160;2022-11-02T06:38:11;99964.16;;;25.35;32.60
73525;BME280;61776;56.194;44.160;2022-11-02T06:40:37;99960.13;;;25.32;32.16
73525;BME280;61776;56.194;44.160;2022-11-02T06:43:03;99954.25;;;25.30;32.18
73525;BME280;61776;56.194;44.160;2022-11-02T06:45:29;99954.25;;;25.30;32.09
73525;BME280;61776;56.194;44.160;2022-11-02T06:47:55;99952.63;;;25.29;32.00
73525;BME280;61776;56.194;44.160;2022-11-02T06:50:22;99949.41;;;25.27;31.92
73525;BME280;61776;56.194;44.160;2022-11-02T06:52:49;99943.03;;;25.28;31.74
73525;BME280;61776;56.194;44.160;2022-11-02T06:55:16;99941.44;;;25.27;32.23
73525;BME280;61776;56.194;44.160;2022-11-02T06:57:43;99946.19;;;25.25;31.84
73525;BME280;61776;56.194;44.160;2022-11-02T07:00:11;99932.06;;;25.25;31.54
73525;BME280;61776;56.194;44.160;2022-11-02T07:02:40;99935.78;;;25.24;31.69
73525;BME280;61776;56.194;44.160;2022-11-02T07:05:07;99929.88;;;25.22;31.46
73525;BME280;61776;56.194;44.160;2022-11-02T07:07:34;99924.81;;;25.20;31.58
73525;BME280;61776;56.194;44.160;2022-11-02T07:10:00;99917.88;;;25.19;31.44
73525;BME280;61776;56.194;44.160;2022-11-02T07:12:26;99922.38;;;25.18;31.33
73525;BME280;61776;56.194;44.160;2022-11-02T07:14:52;99925.03;;;25.18;31.69
73525;BME280;61776;56.194;44.160;2022-11-02T07:17:18;99923.19;;;25.19;31.68
73525;BME280;61776;56.194;44.160;2022-11-02T07:19:43;99923.44;;;25.17;31.56
73525;BME280;61776;56.194;44.160;2022-11-02T07:22:09;99924.47;;;25.16;31.48
73525;BME280;61776;56.194;44.160;2022-11-02T07:24:35;99913.84;;;25.16;31.49
73525;BME280;61776;56.194;44.160;2022-11-02T07:27:01;99919.16;;;25.16;31.30
73525;BME280;61776;56.194;44.160;2022-11-02T07:29:27;99918.13;;;25.17;31.16
73525;BME280;61776;56.194;44.160;2022-11-02T07:31:52;99919.16;;;25.16;31.44
73525;BME280;61776;56.194;44.160;2022-11-02T07:34:20;99912.22;;;25.15;30.91
73525;BME280;61776;56.194;44.160;2022-11-02T07:36:46;99916.72;;;25.15;30.97
73525;BME280;61776;56.194;44.160;2022-11-02T07:39:11;99906.34;;;25.13;31.09
73525;BME280;61776;56.194;44.160;2022-11-02T07:41:37;99900.22;;;25.13;30.86
73525;BME280;61776;56.194;44.160;2022-11-02T07:44:03;99900.47;;;25.11;30.77
73525;BME280;61776;56.194;44.160;2022-11-02T07:46:33;99907.84;;;25.09;30.70
73525;BME280;61776;56.194;44.160;2022-11-02T07:48:59;99919.53;;;25.08;30.57
73525;BME280;61776;56.194;44.160;2022-11-02T07:51:24;99920.56;;;25.07;30.72
73525;BME280;61776;56.194;44.160;2022-11-02T07:53:50;99929.00;;;25.04;31.07
73525;BME280;61776;56.194;44.160;2022-11-02T07:56:16;99929.00;;;25.04;31.29
73525;BME280;61776;56.194;44.160;2022-11-02T07:58:42;99928.19;;;25.04;30.70
73525;BME280;61776;56.194;44.160;2022-11-02T08:01:08;99925.78;;;25.02;30.82
73525;BME280;61776;56.194;44.160;2022-11-02T08:03:34;99922.31;;;25.02;30.83
73525;BME280;61776;56.194;44.160;2022-11-02T08:06:00;99930.28;;;25.02;31.02
73525;BME280;61776;56.194;44.160;2022-11-02T08:08:27;99927.63;;;25.02;31.36
73525;BME280;61776;56.194;44.160;2022-11-02T08:10:53;99926.84;;;25.01;30.92
73525;BME280;61776;56.194;44.160;2022-11-02T08:13:23;99924.19;;;25.01;31.12
73525;BME280;61776;56.194;44.160;2022-11-02T08:15:51;99927.63;;;25.02;31.18
73525;BME280;61776;56.194;44.160;2022-11-02T08:18:23;99932.94;;;25.02;31.01
73525;BME280;61776;56.194;44.160;2022-11-02T08:20:50;99928.44;;;25.02;30.95
73525;BME280;61776;56.194;44.160;2022-11-02T08:23:18;99928.44;;;25.02;30.62
73525;BME280;61776;56.194;44.160;2022-11-02T08:25:45;99935.38;;;25.03;31.00
73525;BME280;61776;56.194;44.160;2022-11-02T08:28:16;99935.94;;;25.05;30.65
73525;BME280;61776;56.194;44.160;2022-11-02T08:30:43;99934.88;;;25.06;30.99
73525;BME280;61776;56.194;44.160;2022-11-02T08:33:11;99925.09;;;25.07;31.05
73525;BME280;61776;56.194;44.160;2022-11-02T08:35:38;99927.41;;;25.03;29.19
73525;BME280;61776;56.194;44.160;2022-11-02T08:38:05;99922.88;;;25.04;30.04
73525;BME280;61776;56.194;44.160;2022-11-02T08:40:32;99928.19;;;25.04;30.68
73525;BME280;61776;56.194;44.160;2022-11-02T08:42:59;99921.88;;;25.05;30.06
73525;BME280;61776;56.194;44.160;2022-11-02T08:45:26;99921.88;;;25.05;30.24
73525;BME280;61776;56.194;44.160;2022-11-02T08:47:52;99921.88;;;25.05;30.26
73525;BME280;61776;56.194;44.160;2022-11-02T08:50:18;99914.69;;;25.05;30.02
73525;BME280;61776;56.194;44.160;2022-11-02T08:52:44;99908.81;;;25.03;30.35
73525;BME280;61776;56.194;44.160;2022-11-02T08:55:10;99905.34;;;25.03;30.54
73525;BME280;61776;56.194;44.160;2022-11-02T08:57:55;99903.72;;;25.02;30.38
73525;BME280;61776;56.194;44.160;2022-11-02T09:00:31;99905.81;;;24.99;30.47
73525;BME280;61776;56.194;44.160;2022-11-02T09:05:29;99908.69;;;24.98;30.37
73525;BME280;61776;56.194;44.160;2022-11-02T09:07:57;99914.81;;;24.98;30.25
73525;BME280;61776;56.194;44.160;2022-11-02T09:10:24;99910.34;;;24.99;30.34
73525;BME280;61776;56.194;44.160;2022-11-02T09:12:50;99904.19;;;24.98;30.66
73525;BME280;61776;56.194;44.160;2022-11-02T09:15:16;99904.19;;;24.98;30.36
73525;BME280;61776;56.194;44.160;2022-11-02T09:17:45;99898.31;;;24.96;30.27
73525;BME280;61776;56.194;44.160;2022-11-02T09:20:11;99891.41;;;24.95;29.98
73525;BME280;61776;56.194;44.160;2022-11-02T09:22:36;99896.72;;;24.95;30.26
73525;BME280;61776;56.194;44.160;2022-11-02T09:25:02;99896.72;;;24.95;30.42
73525;BME280;61776;56.194;44.160;2022-11-02T09:27:28;99887.91;;;24.95;29.96
73525;BME280;61776;56.194;44.160;2022-11-02T09:29:54;99887.13;;;24.94;30.02
73525;BME280;61776;56.194;44.160;2022-11-02T09:32:20;99897.97;;;24.93;29.93
73525;BME280;61776;56.194;44.160;2022-11-02T09:34:46;99891.88;;;24.92;30.20
73525;BME280;61776;56.194;44.160;2022-11-02T09:37:15;99884.13;;;24.91;29.89
73525;BME280;61776;56.194;44.160;2022-11-02T09:39:41;99886.22;;;24.89;29.92
73525;BME280;61776;56.194;44.160;2022-11-02T09:42:21;99878.47;;;24.87;29.90
73525;BME280;61776;56.194;44.160;2022-11-02T09:45:11;99885.66;;;24.87;30.29
73525;BME280;61776;56.194;44.160;2022-11-02T09:47:43;99879.53;;;24.86;30.00
73525;BME280;61776;56.194;44.160;2022-11-02T09:50:24;99878.72;;;24.86;30.35
73525;BME280;61776;56.194;44.160;2022-11-02T09:53:01;99878.72;;;24.86;30.17
73525;BME280;61776;56.194;44.160;2022-11-02T09:55:33;99878.97;;;24.84;30.05
73525;BME280;61776;56.194;44.160;2022-11-02T09:58:12;99891.19;;;24.85;29.89
73525;BME280;61776;56.194;44.160;2022-11-02T10:00:40;99890.63;;;24.83;30.21
73525;BME280;61776;56.194;44.160;2022-11-02T10:06:13;99891.91;;;24.80;29.79
73525;BME280;61776;56.194;44.160;2022-11-02T10:14:07;99884.19;;;24.79;30.25
73525;BME280;61776;56.194;44.160;2022-11-02T10:16:37;99884.19;;;24.79;29.91
73525;BME280;61776;56.194;44.160;2022-11-02T10:19:12;99889.50;;;24.79;29.87
73525;BME280;61776;56.194;44.160;2022-11-02T10:21:41;99887.63;;;24.79;30.37
73525;BME280;61776;56.194;44.160;2022-11-02T10:26:41;99875.97;;;24.80;30.10
73525;BME280;61776;56.194;44.160;2022-11-02T10:29:18;99880.47;;;24.80;29.96
73525;BME280;61776;56.194;44.160;2022-11-02T10:31:46;99877.00;;;24.79;29.80
73525;BME280;61776;56.194;44.160;2022-11-02T10:34:24;99877.00;;;24.79;30.12
73525;BME280;61776;56.194;44.160;2022-11-02T10:51:09;99879.09;;;24.77;29.95
73525;BME280;61776;56.194;44.160;2022-11-02T10:53:47;99877.50;;;24.76;30.15
73525;BME280;61776;56.194;44.160;2022-11-02T10:56:21;99876.66;;;24.76;29.86
73525;BME280;61776;56.194;44.160;2022-11-02T10:59:14;99875.06;;;24.75;29.96
73525;BME280;61776;56.194;44.160;2022-11-02T11:04:26;99880.63;;;24.73;29.83
73525;BME280;61776;56.194;44.160;2022-11-02T11:06:53;99879.81;;;24.73;30.11
73525;BME280;61776;56.194;44.160;2022-11-02T11:09:20;99880.63;;;24.73;29.73
73525;BME280;61776;56.194;44.160;2022-11-02T11:12:20;99873.69;;;24.72;29.69
73525;BME280;61776;56.194;44.160;2022-11-02T11:14:51;99867.34;;;24.73;29.99
73525;BME280;61776;56.194;44.160;2022-11-02T11:17:21;99869.44;;;24.71;29.58
73525;BME280;61776;56.194;44.160;2022-11-02T11:19:53;99862.50;;;24.70;29.78
73525;BME280;61776;56.194;44.160;2022-11-02T11:24:50;99886.16;;;24.72;29.72
73525;BME280;61776;56.194;44.160;2022-11-02T11:27:18;99878.41;;;24.70;30.00
73525;BME280;61776;56.194;44.160;2022-11-02T11:29:47;99880.84;;;24.72;29.98
73525;BME280;61776;56.194;44.160;2022-11-02T11:32:34;99888.00;;;24.71;29.75
73525;BME280;61776;56.194;44.160;2022-11-02T11:35:02;99885.34;;;24.71;29.84
73525;BME280;61776;56.194;44.160;2022-11-02T11:37:29;99884.78;;;24.69;29.75
73525;BME280;61776;56.194;44.160;2022-11-02T11:40:16;99889.25;;;24.69;29.49
73525;BME280;61776;56.194;44.160;2022-11-02T11:42:43;99897.00;;;24.70;29.74
73525;BME280;61776;56.194;44.160;2022-11-02T11:47:55;99894.34;;;24.70;29.82
73525;BME280;61776;56.194;44.160;2022-11-02T11:50:22;99905.19;;;24.69;29.64
73525;BME280;61776;56.194;44.160;2022-11-02T11:55:33;99903.59;;;24.68;30.07
73525;BME280;61776;56.194;44.160;2022-11-02T11:58:12;99896.66;;;24.67;30.01
73525;BME280;61776;56.194;44.160;2022-11-02T12:00:39;99892.97;;;24.68;29.72
73525;BME280;61776;56.194;44.160;2022-11-02T12:03:07;99904.38;;;24.68;29.77
73525;BME280;61776;56.194;44.160;2022-11-02T12:11:45;99900.13;;;24.67;29.91
73525;BME280;61776;56.194;44.160;2022-11-02T12:33:30;99915.94;;;24.62;29.57
73525;BME280;61776;56.194;44.160;2022-11-02T12:36:11;99915.16;;;24.62;29.71
73525;BME280;61776;56.194;44.160;2022-11-02T12:39:06;99915.38;;;24.60;29.66
73525;BME280;61776;56.194;44.160;2022-11-02T12:50:07;99913.75;;;24.59;29.60
73525;BME280;61776;56.194;44.160;2022-11-02T12:52:47;99923.56;;;24.58;29.86
73525;BME280;61776;56.194;44.160;2022-11-02T12:55:20;99921.94;;;24.57;29.88
73525;BME280;61776;56.194;44.160;2022-11-02T12:57:48;99920.13;;;24.58;29.73
73525;BME280;61776;56.194;44.160;2022-11-02T13:00:19;99920.34;;;24.56;29.94
73525;BME280;61776;56.194;44.160;2022-11-02T13:02:56;99920.34;;;24.56;29.59
73525;BME280;61776;56.194;44.160;2022-11-02T13:05:29;99922.19;;;24.56;30.10
73525;BME280;61776;56.194;44.160;2022-11-02T13:10:53;99922.19;;;24.56;29.57
73525;BME280;61776;56.194;44.160;2022-11-02T13:15:58;99922.19;;;24.56;29.93
73525;BME280;61776;56.194;44.160;2022-11-02T13:18:37;99923.00;;;24.56;29.86
73525;BME280;61776;56.194;44.160;2022-11-02T13:21:06;99932.00;;;24.55;29.97
73525;BME280;61776;56.194;44.160;2022-11-02T13:23:38;99933.03;;;24.54;29.50
73525;BME280;61776;56.194;44.160;2022-11-02T13:26:28;99934.06;;;24.53;29.52
73525;BME280;61776;56.194;44.160;2022-11-02T13:29:01;99930.63;;;24.53;29.65
73525;BME280;61776;56.194;44.160;2022-11-02T13:31:36;99939.38;;;24.53;29.76
73525;BME280;61776;56.194;44.160;2022-11-02T13:34:10;99936.72;;;24.53;29.65
73525;BME280;61776;56.194;44.160;2022-11-02T13:36:38;99934.88;;;24.54;29.99
73525;BME280;61776;56.194;44.160;2022-11-02T13:39:14;99938.34;;;24.54;29.67
73525;BME280;61776;56.194;44.160;2022-11-02T13:49:43;99936.50;;;24.55;29.91
73525;BME280;61776;56.194;44.160;2022-11-02T13:52:15;99931.19;;;24.55;29.64
73525;BME280;61776;56.194;44.160;2022-11-02T13:54:55;99941.00;;;24.54;30.13
73525;BME280;61776;56.194;44.160;2022-11-02T13:57:35;99930.38;;;24.54;29.99
73525;BME280;61776;56.194;44.160;2022-11-02T14:00:09;99941.81;;;24.55;29.85
73525;BME280;61776;56.194;44.160;2022-11-02T14:05:44;99935.94;;;24.53;30.07
73525;BME280;61776;56.194;44.160;2022-11-02T14:08:22;99927.16;;;24.52;30.01
73525;BME280;61776;56.194;44.160;2022-11-02T14:46:31;99959.09;;;24.46;30.21
73525;BME280;61776;56.194;44.160;2022-11-02T14:49:03;99948.47;;;24.46;29.82
73525;BME280;61776;56.194;44.160;2022-11-02T14:51:32;99950.09;;;24.47;29.85
73525;BME280;61776;56.194;44.160;2022-11-02T14:54:15;99946.16;;;24.49;30.02
73525;BME280;61776;56.194;44.160;2022-11-02T14:59:24;99942.47;;;24.50;29.95
73525;BME280;61776;56.194;44.160;2022-11-02T15:02:01;99946.72;;;24.51;29.93
73525;BME280;61776;56.194;44.160;2022-11-02T15:04:28;99945.94;;;24.51;29.93
73525;BME280;61776;56.194;44.160;2022-11-02T15:06:57;99948.41;;;24.52;29.88
73525;BME280;61776;56.194;44.160;2022-11-02T15:09:59;99952.88;;;24.52;29.99
73525;BME280;61776;56.194;44.160;2022-11-02T15:12:27;99960.59;;;24.53;30.21
73525;BME280;61776;56.194;44.160;2022-11-02T15:14:58;99942.81;;;24.54;29.96
73525;BME280;61776;56.194;44.160;2022-11-02T15:19:52;99946.31;;;24.54;29.85
73525;BME280;61776;56.194;44.160;2022-11-02T15:22:41;99939.16;;;24.55;30.00
73525;BME280;61776;56.194;44.160;2022-11-02T15:25:14;99947.91;;;24.55;29.99
73525;BME280;61776;56.194;44.160;2022-11-02T15:27:43;99955.88;;;24.55;29.91
73525;BME280;61776;56.194;44.160;2022-11-02T15:30:22;99954.03;;;24.56;29.67
73525;BME280;61776;56.194;44.160;2022-11-02T15:32:51;99950.56;;;24.55;30.00
73525;BME280;61776;56.194;44.160;2022-11-02T15:35:21;99941.81;;;24.55;30.01
73525;BME280;61776;56.194;44.160;2022-11-02T15:37:51;99945.25;;;24.55;29.87